Time;durP1;ratioP1;P1;durP2;ratioP2;P2;SDS_P1;SDS_P2;PMS_P1;PMS_P2;Temp;Humidity;BMP_temperature;BMP_pressure;BME280_temperature;BME280_humidity;BME280_pressure;Samples;Min_cycle;Max_cycle;Signal;HPM_P1;HPM_P2
2024/02/27 00:03:02;;;;;;;42.40;25.63;;;;;;;9.05;100.00;100094.69;4985909;55;1143236;-81
2024/02/27 00:08:08;;;;;;;45.07;26.03;;;;;;;9.04;100.00;100099.60;5068583;55;1143442;-83
2024/02/27 00:13:13;;;;;;;40.10;23.43;;;;;;;8.88;100.00;100093.84;5114097;56;1142956;-81
2024/02/27 00:18:19;;;;;;;50.37;26.40;;;;;;;8.73;100.00;100084.84;5112057;56;1143071;-81
2024/02/27 00:23:24;;;;;;;49.88;27.07;;;;;;;8.68;100.00;100076.94;5111948;56;1143008;-82
2024/02/27 00:28:30;;;;;;;50.00;27.47;;;;;;;8.74;100.00;100083.03;5131758;56;1142802;-82
2024/02/27 00:33:36;;;;;;;41.73;23.70;;;;;;;8.74;100.00;100083.03;5111814;56;1142836;-83
2024/02/27 00:38:41;;;;;;;45.40;26.30;;;;;;;8.77;100.00;100095.99;5080915;56;1142853;-80
2024/02/27 00:43:47;;;;;;;49.67;28.23;;;;;;;8.72;100.00;100104.24;5131647;56;1142935;-82
2024/02/27 00:48:52;;;;;;;44.35;27.73;;;;;;;8.77;100.00;100105.22;5111558;55;1142886;-83
2024/02/27 00:54:00;;;;;;;46.70;25.55;;;;;;;8.81;100.00;100106.20;5111387;56;1142983;-82
2024/02/27 00:59:05;;;;;;;41.30;25.57;;;;;;;8.79;100.00;100111.22;5210842;54;1142526;-83
2024/02/27 01:04:11;;;;;;;39.00;23.33;;;;;;;8.73;100.00;100109.04;5131215;55;1142973;-81
2024/02/27 01:09:16;;;;;;;46.20;25.50;;;;;;;8.67;100.00;100106.89;5116097;55;1142679;-82
2024/02/27 01:14:22;;;;;;;50.43;27.37;;;;;;;8.62;100.00;100112.98;5113215;55;1142848;-80
2024/02/27 01:19:28;;;;;;;47.67;25.43;;;;;;;8.61;100.00;100116.09;5132439;55;1142709;-82
2024/02/27 01:24:38;;;;;;;48.67;25.57;;;;;;;8.59;100.00;100115.37;5112733;55;1142823;-81
2024/02/27 01:29:43;;;;;;;46.27;25.90;;;;;;;8.64;100.00;100120.30;5111229;55;1142894;-82
2024/02/27 01:34:49;;;;;;;43.33;27.45;;;;;;;8.72;100.00;100127.12;5133215;55;1142716;-82
2024/02/27 01:39:54;;;;;;;46.13;27.37;;;;;;;8.74;100.00;100126.06;5113025;55;1142494;-82
2024/02/27 01:45:00;;;;;;;47.67;27.17;;;;;;;8.71;100.00;100129.41;5112599;55;1142746;-81
2024/02/27 01:50:06;;;;;;;48.53;26.60;;;;;;;8.67;100.00;100123.55;5132265;55;1142984;-82
2024/02/27 01:55:13;;;;;;;39.63;25.82;;;;;;;8.63;100.00;100136.59;5126780;55;1142896;-82
2024/02/27 02:00:20;;;;;;;42.53;25.67;;;;;;;8.61;100.00;100141.14;5071555;55;1142458;-81
2024/02/27 02:05:26;;;;;;;46.37;27.93;;;;;;;8.62;100.00;100138.02;5124089;55;1143017;-81
2024/02/27 02:10:31;;;;;;;50.77;27.63;;;;;;;8.67;100.00;100143.80;5141419;55;1142770;-82
2024/02/27 02:15:37;;;;;;;49.73;26.87;;;;;;;8.65;100.00;100149.66;5106527;56;1142745;-78
2024/02/27 02:20:43;;;;;;;46.30;27.70;;;;;;;8.67;100.00;100155.66;5169007;55;1142856;-81
2024/02/27 02:25:50;;;;;;;42.50;25.75;;;;;;;8.66;100.00;100151.34;5219156;55;1142822;-81
2024/02/27 02:30:55;;;;;;;45.73;25.57;;;;;;;8.67;100.00;100142.00;5198051;55;1142769;-81
2024/02/27 02:36:01;;;;;;;49.53;28.80;;;;;;;8.71;100.00;100141.27;5201157;54;1142720;-82
2024/02/27 02:41:07;;;;;;;54.87;30.33;;;;;;;8.71;100.00;100143.91;5217971;55;1142592;-83
2024/02/27 02:46:13;;;;;;;43.50;27.47;;;;;;;8.68;100.00;100157.34;5198369;54;1142609;-81
2024/02/27 02:51:19;;;;;;;53.40;30.13;;;;;;;8.63;100.00;100147.14;5198006;55;1142905;-82
2024/02/27 02:56:24;;;;;;;47.77;27.17;;;;;;;8.54;100.00;100153.59;5113799;55;1142878;-81
2024/02/27 03:01:30;;;;;;;47.47;28.70;;;;;;;8.47;100.00;100157.14;5227565;54;1142742;-81
2024/02/27 03:06:35;;;;;;;48.63;28.87;;;;;;;8.43;100.00;100160.95;5142936;55;1142936;-81
2024/02/27 03:11:41;;;;;;;47.43;26.70;;;;;;;8.39;100.00;100174.02;5142229;55;1142691;-81
2024/02/27 03:16:50;;;;;;;48.20;28.35;;;;;;;8.39;100.00;100180.13;5162465;55;1142592;-81
2024/02/27 03:21:56;;;;;;;48.92;27.98;;;;;;;8.43;100.00;100184.20;5141985;55;1142804;-82
2024/02/27 03:27:02;;;;;;;45.35;28.07;;;;;;;8.52;100.00;100200.30;5142348;55;1142807;-81
2024/02/27 03:32:07;;;;;;;47.80;30.73;;;;;;;8.57;100.00;100205.58;5162178;55;1142637;-82
2024/02/27 03:37:13;;;;;;;48.50;29.90;;;;;;;8.58;100.00;100203.78;5142153;55;1142644;-82
2024/02/27 03:42:19;;;;;;;51.57;32.03;;;;;;;8.50;100.00;100203.05;5141862;55;1142613;-82
2024/02/27 03:47:24;;;;;;;48.35;29.50;;;;;;;8.41;100.00;100195.33;5106358;54;1143143;-82
2024/02/27 03:52:30;;;;;;;49.77;30.33;;;;;;;8.36;100.00;100197.48;5127855;55;1143139;-82
2024/02/27 03:57:36;;;;;;;49.67;29.73;;;;;;;8.29;100.00;100219.91;5112326;55;1142969;-81
2024/02/27 04:02:43;;;;;;;49.17;29.03;;;;;;;8.26;100.00;100224.08;5108516;54;1143044;-82
2024/02/27 04:07:49;;;;;;;53.43;30.67;;;;;;;8.29;100.00;100229.14;5077638;56;1143016;-82
2024/02/27 04:12:55;;;;;;;49.75;29.65;;;;;;;8.27;100.00;100238.94;5058761;56;1142746;-81
2024/02/27 04:18:01;;;;;;;50.33;30.17;;;;;;;8.32;100.00;100240.81;5112331;56;1142822;-82
2024/02/27 04:23:06;;;;;;;47.53;29.67;;;;;;;8.48;100.00;100242.33;5132998;56;1143023;-82
2024/02/27 04:28:13;;;;;;;59.40;34.38;;;;;;;8.54;100.00;100241.41;5112464;56;1142868;-83
2024/02/27 04:33:19;;;;;;;53.23;34.43;;;;;;;8.55;100.00;100250.16;5112287;56;1143135;-81
2024/02/27 04:38:24;;;;;;;56.77;35.85;;;;;;;8.55;100.00;100239.14;5112773;56;1142824;-81
2024/02/27 04:43:30;;;;;;;61.00;34.23;;;;;;;8.45;100.00;100246.02;5132530;55;1143052;-83
2024/02/27 04:48:36;;;;;;;64.05;36.68;;;;;;;8.37;100.00;100233.42;5189971;55;1142715;-81
2024/02/27 04:53:42;;;;;;;62.23;34.67;;;;;;;8.36;100.00;100244.91;5198891;55;1142970;-82
2024/02/27 04:58:48;;;;;;;65.60;37.33;;;;;;;8.30;100.00;100250.58;5220487;55;1142953;-81
2024/02/27 05:03:53;;;;;;;65.83;36.00;;;;;;;8.25;100.00;100251.89;5094823;55;1142746;-82
2024/02/27 05:08:59;;;;;;;63.53;36.10;;;;;;;8.23;100.00;100248.04;5090468;56;1150619;-82
2024/02/27 05:14:04;;;;;;;59.27;35.57;;;;;;;8.23;100.00;100251.99;5133327;56;1143107;-81
2024/02/27 05:19:10;;;;;;;61.47;33.33;;;;;;;8.16;100.00;100252.05;5122360;55;1143235;-82
2024/02/27 05:24:16;;;;;;;62.07;34.57;;;;;;;8.15;100.00;100253.48;5123355;55;1143093;-82
2024/02/27 05:29:21;;;;;;;59.83;35.10;;;;;;;8.16;100.00;100264.37;5132625;55;1143133;-81
2024/02/27 05:34:27;;;;;;;65.97;37.67;;;;;;;8.16;100.00;100261.27;5152547;55;1143264;-78
2024/02/27 05:39:32;;;;;;;67.67;38.77;;;;;;;8.16;100.00;100261.75;5129108;55;1143042;-80
2024/02/27 05:44:38;;;;;;;66.47;38.28;;;;;;;8.15;100.00;100266.17;5128777;55;1164565;-79
2024/02/27 05:49:43;;;;;;;65.97;35.57;;;;;;;8.13;100.00;100270.23;5148615;56;1142799;-78
2024/02/27 05:54:49;;;;;;;63.13;35.53;;;;;;;8.15;100.00;100275.87;5128486;56;1143161;-78
2024/02/27 05:59:54;;;;;;;62.33;34.75;;;;;;;8.19;100.00;100281.30;5144408;55;1142891;-78
2024/02/27 06:05:00;;;;;;;72.90;36.85;;;;;;;8.18;100.00;100289.67;5227443;55;1142953;-77
2024/02/27 06:10:06;;;;;;;66.77;36.93;;;;;;;8.19;100.00;100290.52;5198809;55;1142670;-77
2024/02/27 06:15:12;;;;;;;69.40;35.97;;;;;;;8.19;100.00;100286.09;5198121;55;1142993;-77
2024/02/27 06:25:40;;;;;;;70.63;36.27;;;;;;;8.17;100.00;100296.36;5211864;55;1142751;-78
2024/02/27 06:30:46;;;;;;;74.20;38.90;;;;;;;8.18;100.00;100300.20;5196252;55;1262841;-79
2024/02/27 06:35:51;;;;;;;74.23;39.43;;;;;;;8.21;100.00;100317.59;5169418;55;1142863;-79
2024/02/27 06:40:57;;;;;;;85.80;43.10;;;;;;;8.20;100.00;100323.33;5186286;55;1142688;-77
2024/02/27 06:46:05;;;;;;;81.57;41.65;;;;;;;8.25;100.00;100325.66;5135492;55;1143077;-77
2024/02/27 06:51:11;;;;;;;83.27;44.47;;;;;;;8.26;100.00;100320.72;5153125;55;1142817;-77
2024/02/27 06:56:17;;;;;;;104.83;47.73;;;;;;;8.24;100.00;100314.75;5133978;55;1142622;-76
2024/02/27 07:01:23;;;;;;;97.00;45.93;;;;;;;8.20;100.00;100322.49;5139572;55;1145057;-77
2024/02/27 07:06:29;;;;;;;95.47;43.90;;;;;;;8.15;100.00;100329.39;5056359;56;1142953;-75
2024/02/27 07:11:34;;;;;;;94.37;42.87;;;;;;;8.13;100.00;100333.92;5077665;56;1143006;-77
2024/02/27 07:16:40;;;;;;;106.27;45.00;;;;;;;8.10;100.00;100338.92;5056653;56;1143000;-79
2024/02/27 07:21:46;;;;;;;108.77;50.77;;;;;;;8.05;100.00;100341.06;5084315;56;1145046;-77
2024/02/27 07:26:51;;;;;;;87.90;43.73;;;;;;;8.02;100.00;100345.22;5123196;56;1145129;-76
2024/02/27 07:31:57;;;;;;;95.35;44.08;;;;;;;8.01;100.00;100339.59;5133028;55;1142646;-77
2024/02/27 07:37:03;;;;;;;91.20;41.03;;;;;;;8.00;100.00;100348.43;5122505;55;1143093;-76
2024/02/27 07:42:09;;;;;;;82.63;39.70;;;;;;;8.04;100.00;100353.02;5123473;56;1143046;-79
2024/02/27 07:47:16;;;;;;;82.93;39.40;;;;;;;8.09;100.00;100359.66;5103362;56;1142605;-77
2024/02/27 07:52:22;;;;;;;73.57;39.13;;;;;;;8.17;100.00;100359.11;5103266;56;1142555;-79
2024/02/27 07:57:27;;;;;;;74.20;38.03;;;;;;;8.21;100.00;100370.28;5102995;56;1142863;-78
2024/02/27 08:02:34;;;;;;;69.00;36.73;;;;;;;8.23;100.00;100375.81;5145179;55;1142617;-78
2024/02/27 08:07:39;;;;;;;70.50;37.70;;;;;;;8.28;100.00;100379.42;5102520;55;1142953;-79
2024/02/27 08:12:45;;;;;;;76.87;39.77;;;;;;;8.29;100.00;100384.59;5102852;56;1142725;-79
2024/02/27 08:17:50;;;;;;;71.57;37.93;;;;;;;8.24;100.00;100387.20;5123314;55;1152331;-76
2024/02/27 08:22:56;;;;;;;71.72;36.75;;;;;;;8.24;100.00;100396.42;5103047;54;1143040;-76
2024/02/27 08:28:03;;;;;;;77.08;38.08;;;;;;;8.25;100.00;100394.16;5143465;55;1142816;-77
2024/02/27 08:33:09;;;;;;;71.93;38.27;;;;;;;8.25;100.00;100390.20;5139942;55;1142682;-78
2024/02/27 08:38:14;;;;;;;84.07;40.37;;;;;;;8.32;100.00;100400.22;5070327;55;1142901;-79
2024/02/27 08:43:20;;;;;;;84.13;41.50;;;;;;;8.37;100.00;100409.13;4995635;54;1143054;-77
2024/02/27 08:48:26;;;;;;;82.47;40.77;;;;;;;8.37;100.00;100402.55;5031883;55;1142862;-76
2024/02/27 08:53:31;;;;;;;88.97;42.62;;;;;;;8.36;100.00;100414.88;5078890;55;1142751;-75
2024/02/27 08:58:38;;;;;;;86.03;41.40;;;;;;;8.36;100.00;100417.98;5042011;55;1142986;-77
2024/02/27 09:03:44;;;;;;;83.30;39.07;;;;;;;8.38;100.00;100428.79;5059201;55;1143072;-76
2024/02/27 09:08:50;;;;;;;93.20;44.40;;;;;;;8.45;100.00;100434.45;5073320;56;1142742;-79
2024/02/27 09:13:55;;;;;;;96.33;42.57;;;;;;;8.49;100.00;100436.41;5053404;56;1142830;-79
2024/02/27 09:19:01;;;;;;;88.40;41.25;;;;;;;8.53;100.00;100445.32;5057426;56;1143034;-78
2024/02/27 09:24:07;;;;;;;80.53;39.78;;;;;;;8.55;100.00;100443.90;5102600;56;1142699;-78
2024/02/27 09:29:13;;;;;;;88.90;40.53;;;;;;;8.59;100.00;100445.34;5064290;56;1142584;-76
2024/02/27 09:34:20;;;;;;;87.45;40.10;;;;;;;8.64;100.00;100437.97;5040531;56;1142873;-78
2024/02/27 09:39:26;;;;;;;76.27;40.17;;;;;;;8.71;100.00;100429.97;5024066;57;1143127;-77
2024/02/27 09:44:32;;;;;;;86.70;41.93;;;;;;;8.75;100.00;100441.98;5054154;56;1143324;-75
2024/02/27 09:49:45;;;;;;;78.50;39.03;;;;;;;8.75;100.00;100443.31;5061602;56;1142984;-77
2024/02/27 09:54:51;;;;;;;77.20;37.13;;;;;;;8.73;100.00;100446.05;5042213;56;1143096;-79
2024/02/27 09:59:57;;;;;;;68.62;34.53;;;;;;;8.66;100.00;100454.05;5044708;56;1143041;-77
2024/02/27 10:05:03;;;;;;;61.60;30.77;;;;;;;8.66;100.00;100458.47;5029349;56;1142905;-79
2024/02/27 10:10:10;;;;;;;66.25;34.83;;;;;;;8.68;100.00;100462.70;5037618;56;1143271;-76
2024/02/27 10:15:16;;;;;;;76.93;35.97;;;;;;;8.75;100.00;100476.27;5053909;56;1143020;-77
2024/02/27 10:20:30;;;;;;;79.43;38.47;;;;;;;8.76;100.00;100473.53;5078211;55;1142839;-77
2024/02/27 10:25:36;;;;;;;73.40;36.65;;;;;;;8.76;100.00;100473.53;5114609;55;1143292;-76
2024/02/27 10:30:41;;;;;;;74.97;36.33;;;;;;;8.81;100.00;100484.60;5130360;56;1143021;-79
2024/02/27 10:35:49;;;;;;;71.60;37.97;;;;;;;8.87;100.00;100481.98;5056184;56;1142706;-76
2024/02/27 10:40:54;;;;;;;81.53;41.57;;;;;;;8.94;100.00;100483.73;5072324;56;1142868;-77
2024/02/27 10:46:00;;;;;;;76.57;41.57;;;;;;;8.95;100.00;100480.14;5092425;55;1142806;-78
2024/02/27 10:51:06;;;;;;;95.32;43.28;;;;;;;8.92;100.00;100477.72;5112929;55;1142807;-77
2024/02/27 10:56:12;;;;;;;76.27;38.17;;;;;;;8.93;100.00;100480.72;5066126;56;1142706;-78
2024/02/27 11:01:19;;;;;;;76.50;38.80;;;;;;;8.97;100.00;100484.83;5134771;55;1142809;-77
2024/02/27 11:06:30;;;;;;;73.50;37.90;;;;;;;9.01;100.00;100487.63;5209972;55;1142950;-77
2024/02/27 11:11:38;;;;;;;73.55;36.08;;;;;;;9.04;100.00;100498.78;5210446;55;1142958;-78
2024/02/27 11:16:47;;;;;;;68.03;37.50;;;;;;;9.08;100.00;100488.86;5185462;55;1142990;-76
2024/02/27 11:21:54;;;;;;;64.82;34.18;;;;;;;9.06;100.00;100495.56;5153760;55;1143192;-78
2024/02/27 11:27:00;;;;;;;65.30;32.10;;;;;;;9.07;100.00;100490.65;5210079;55;1142943;-78
2024/02/27 11:32:06;;;;;;;66.73;34.47;;;;;;;9.14;100.00;100495.02;5230456;55;1143132;-77
2024/02/27 11:37:21;;;;;;;58.33;29.10;;;;;;;9.17;100.00;100493.45;5209366;55;1142950;-76
2024/02/27 11:42:40;;;;;;;58.00;28.57;;;;;;;9.21;100.00;100502.84;5209813;55;1142733;-77
2024/02/27 11:47:52;;;;;;;62.97;31.90;;;;;;;9.17;100.00;100500.05;5210197;55;1142965;-78
2024/02/27 11:52:57;;;;;;;57.03;28.40;;;;;;;9.16;100.00;100491.80;5230703;55;1143121;-79
2024/02/27 11:58:04;;;;;;;55.40;28.43;;;;;;;9.16;100.00;100492.64;5209884;55;1142851;-77
2024/02/27 12:03:11;;;;;;;61.73;30.20;;;;;;;9.16;100.00;100501.88;5188162;55;1143061;-76
2024/02/27 12:08:17;;;;;;;58.57;29.33;;;;;;;9.20;100.00;100502.48;5230147;55;1142784;-76
2024/02/27 12:13:22;;;;;;;61.77;29.77;;;;;;;9.16;100.00;100513.75;5142603;55;1142939;-76
2024/02/27 12:18:28;;;;;;;51.97;27.03;;;;;;;9.10;100.00;100514.66;5111281;56;1152676;-79
2024/02/27 12:23:35;;;;;;;57.23;29.43;;;;;;;9.11;100.00;100511.91;5153333;56;1143174;-77
2024/02/27 12:28:41;;;;;;;59.07;30.83;;;;;;;9.14;100.00;100511.70;5147187;56;1142732;-77
2024/02/27 12:33:47;;;;;;;84.43;39.97;;;;;;;9.19;100.00;100510.03;5078743;56;1142660;-78
2024/02/27 12:38:54;;;;;;;66.97;33.85;;;;;;;9.22;100.00;100512.45;5113668;56;1142893;-79
2024/02/27 12:44:00;;;;;;;96.57;45.78;;;;;;;9.22;100.00;100508.49;5018683;57;1142851;-77
2024/02/27 12:49:06;;;;;;;63.90;30.80;;;;;;;9.24;100.00;100511.87;5020299;57;1143033;-76
2024/02/27 12:54:11;;;;;;;64.87;32.93;;;;;;;9.25;100.00;100514.87;5039773;57;1142927;-78
2024/02/27 12:59:17;;;;;;;63.10;33.07;;;;;;;9.24;100.00;100527.70;5068356;56;1142855;-78
2024/02/27 13:04:24;;;;;;;59.43;32.03;;;;;;;9.24;100.00;100527.70;5114832;56;1142847;-76
2024/02/27 13:09:30;;;;;;;54.53;29.03;;;;;;;9.24;100.00;100528.17;5060928;56;1143147;-79
2024/02/27 13:14:36;;;;;;;60.43;33.60;;;;;;;9.23;100.00;100528.66;5044485;56;1143162;-79
2024/02/27 13:19:42;;;;;;;57.10;31.07;;;;;;;9.22;100.00;100530.08;5030286;57;1142520;-78
2024/02/27 13:24:47;;;;;;;58.97;29.30;;;;;;;9.23;100.00;100529.97;5111973;55;1142835;-79
2024/02/27 13:29:53;;;;;;;60.33;29.27;;;;;;;9.23;100.00;100531.77;5147644;56;1142875;-78
2024/02/27 13:34:59;;;;;;;53.73;26.57;;;;;;;9.17;100.00;100529.92;5042547;56;1143027;-77
2024/02/27 13:40:06;;;;;;;50.73;25.10;;;;;;;9.12;100.00;100536.02;5039695;56;1142789;-76
2024/02/27 13:45:12;;;;;;;45.55;25.82;;;;;;;9.12;100.00;100536.02;5064307;56;1142876;-77
2024/02/27 13:50:17;;;;;;;47.90;25.80;;;;;;;9.15;100.00;100534.49;5114043;56;1142937;-76
2024/02/27 13:55:23;;;;;;;57.00;28.80;;;;;;;9.24;100.00;100536.94;5089391;56;1142845;-77
2024/02/27 14:00:29;;;;;;;49.80;27.20;;;;;;;9.25;100.00;100540.42;5072577;56;1142606;-76
2024/02/27 14:05:34;;;;;;;46.33;23.37;;;;;;;9.23;100.00;100538.36;5106730;55;1142542;-79
2024/02/27 14:10:41;;;;;;;49.43;26.73;;;;;;;9.24;100.00;100536.09;5076600;56;1142569;-76
2024/02/27 14:15:47;;;;;;;40.80;24.20;;;;;;;9.18;100.00;100544.80;5048361;56;1143047;-79
2024/02/27 14:20:52;;;;;;;41.80;23.27;;;;;;;9.14;100.00;100545.16;5068392;56;1143174;-77
2024/02/27 14:25:58;;;;;;;43.75;24.05;;;;;;;9.13;100.00;100541.67;5068287;55;1143031;-77
2024/02/27 14:31:04;;;;;;;49.43;26.43;;;;;;;9.17;100.00;100539.63;5084445;56;1142899;-77
2024/02/27 14:36:11;;;;;;;48.80;27.37;;;;;;;9.13;100.00;100540.83;5183238;55;1142993;-78
2024/02/27 14:41:16;;;;;;;50.97;26.93;;;;;;;9.13;100.00;100550.91;5210156;55;1143152;-78
2024/02/27 14:46:22;;;;;;;47.30;26.50;;;;;;;9.17;100.00;100556.78;5209182;55;1142873;-76
2024/02/27 14:51:28;;;;;;;39.33;22.37;;;;;;;9.21;100.00;100548.18;5174396;55;1142762;-79
2024/02/27 14:56:34;;;;;;;44.30;22.67;;;;;;;9.23;100.00;100548.44;5093606;56;1142913;-77
2024/02/27 15:01:40;;;;;;;38.67;21.30;;;;;;;9.27;100.00;100555.67;5075739;56;1143099;-77
2024/02/27 15:06:46;;;;;;;39.00;22.50;;;;;;;9.32;100.00;100564.92;5150799;55;1142814;-79
2024/02/27 15:11:52;;;;;;;35.37;21.77;;;;;;;9.37;100.00;100567.25;5176561;55;1142905;-77
2024/02/27 15:16:58;;;;;;;46.33;26.10;;;;;;;9.34;100.00;100556.91;5144302;55;1142732;-78
2024/02/27 15:22:04;;;;;;;62.47;32.33;;;;;;;9.23;100.00;100560.80;5133413;55;1143028;-78
2024/02/27 15:27:10;;;;;;;51.25;27.48;;;;;;;9.20;100.00;100570.24;5151708;55;1142886;-76
2024/02/27 15:32:15;;;;;;;54.83;29.20;;;;;;;9.20;100.00;100568.92;5133783;55;1142954;-76
2024/02/27 15:37:21;;;;;;;52.37;28.23;;;;;;;9.17;100.00;100579.22;5166034;55;1142921;-78
2024/02/27 15:42:27;;;;;;;62.13;30.37;;;;;;;9.16;100.00;100570.48;5194857;55;1143212;-78
2024/02/27 15:47:33;;;;;;;62.27;30.40;;;;;;;9.22;100.00;100568.34;5215870;55;1142982;-76
2024/02/27 15:52:38;;;;;;;75.33;36.93;;;;;;;9.24;100.00;100562.01;5132308;55;1143200;-79
2024/02/27 15:57:44;;;;;;;61.80;29.80;;;;;;;9.18;100.00;100566.39;5107639;55;1142838;-77
2024/02/27 16:02:52;;;;;;;64.57;31.50;;;;;;;9.14;100.00;100574.18;5195020;55;1143354;-77
2024/02/27 16:07:58;;;;;;;72.83;41.50;;;;;;;9.10;100.00;100581.46;5175525;55;1142971;-78
2024/02/27 16:13:03;;;;;;;67.97;35.37;;;;;;;9.10;100.00;100589.85;5194824;55;1143050;-76
2024/02/27 16:18:09;;;;;;;55.65;28.52;;;;;;;9.12;100.00;100591.91;5136564;55;1142969;-77
2024/02/27 16:23:20;;;;;;;58.30;28.63;;;;;;;9.18;100.00;100593.63;5087151;56;1142701;-79
2024/02/27 16:28:25;;;;;;;67.70;34.03;;;;;;;9.24;100.00;100594.16;5101177;56;1143119;-78
2024/02/27 16:33:30;;;;;;;77.60;37.60;;;;;;;9.23;100.00;100593.30;5024670;56;1142762;-77
2024/02/27 16:38:36;;;;;;;94.33;49.57;;;;;;;9.21;100.00;100604.92;5072478;55;1143158;-77
2024/02/27 16:43:42;;;;;;;94.93;48.33;;;;;;;9.17;100.00;100604.28;5033158;56;1142723;-79
2024/02/27 16:48:47;;;;;;;77.67;37.57;;;;;;;9.17;100.00;100612.20;4991681;56;1142950;-76
2024/02/27 16:53:53;;;;;;;62.53;32.17;;;;;;;9.15;100.00;100612.34;5087904;55;1143034;-77
2024/02/27 16:58:59;;;;;;;104.30;46.23;;;;;;;9.12;100.00;100623.09;5078593;55;1143096;-77
2024/02/27 17:04:05;;;;;;;201.70;87.60;;;;;;;9.08;100.00;100626.05;5057201;56;1144966;-78
2024/02/27 17:09:11;;;;;;;230.87;96.23;;;;;;;9.17;100.00;100634.63;5123181;56;1144763;-78
2024/02/27 17:14:16;;;;;;;140.22;66.53;;;;;;;9.15;100.00;100636.55;5091554;56;1145097;-78
2024/02/27 17:19:22;;;;;;;163.07;69.93;;;;;;;9.16;100.00;100636.92;5056235;56;1145017;-78
2024/02/27 17:24:27;;;;;;;115.00;53.13;;;;;;;9.18;100.00;100642.91;5102600;56;1144794;-78
2024/02/27 17:29:33;;;;;;;131.87;70.63;;;;;;;9.21;100.00;100657.22;5127434;55;1144695;-78
2024/02/27 17:34:38;;;;;;;156.20;92.17;;;;;;;9.24;100.00;100658.33;5140508;55;1145007;-78
2024/02/27 17:39:44;;;;;;;86.33;49.73;;;;;;;9.28;100.00;100658.97;5147739;56;1144954;-78
2024/02/27 17:44:50;;;;;;;82.13;41.20;;;;;;;9.23;100.00;100647.41;5133251;56;1142890;-78
2024/02/27 17:49:55;;;;;;;79.63;44.33;;;;;;;9.21;100.00;100629.98;5155367;55;1143066;-77
2024/02/27 17:55:02;;;;;;;81.22;40.80;;;;;;;9.20;100.00;100623.02;5176585;55;1142857;-78
2024/02/27 18:00:09;;;;;;;110.03;53.00;;;;;;;9.11;100.00;100623.20;5137812;55;1143099;-78
2024/02/27 18:05:15;;;;;;;78.17;43.58;;;;;;;9.11;100.00;100628.00;5147309;55;1145047;-78
2024/02/27 18:10:20;;;;;;;77.83;38.30;;;;;;;9.15;100.00;100627.32;5143483;55;1143163;-78
2024/02/27 18:15:27;;;;;;;84.47;42.30;;;;;;;9.21;100.00;100633.47;5120697;56;1152494;-78
2024/02/27 18:20:32;;;;;;;81.17;43.13;;;;;;;9.27;100.00;100638.33;5151390;55;1143057;-78
2024/02/27 18:25:39;;;;;;;95.37;46.37;;;;;;;9.32;100.00;100640.15;5143453;55;1142933;-78
2024/02/27 18:30:45;;;;;;;98.27;48.70;;;;;;;9.33;100.00;100644.48;5119283;55;1142935;-78
2024/02/27 18:35:55;;;;;;;83.70;41.50;;;;;;;9.27;100.00;100644.93;5114848;55;1143014;-78
2024/02/27 18:41:00;;;;;;;69.47;34.60;;;;;;;9.25;100.00;100657.86;5182425;55;1143101;-77
2024/02/27 18:46:06;;;;;;;78.77;38.17;;;;;;;9.16;100.00;100666.80;5117284;55;1142833;-78
2024/02/27 18:51:12;;;;;;;75.17;39.05;;;;;;;9.17;100.00;100670.25;5135197;55;1142693;-78
2024/02/27 18:56:18;;;;;;;82.02;39.88;;;;;;;9.24;100.00;100671.53;5195383;55;1142891;-78
2024/02/27 19:01:24;;;;;;;82.12;42.55;;;;;;;9.23;100.00;100665.88;5249604;55;1142690;-78
2024/02/27 19:06:29;;;;;;;90.30;43.67;;;;;;;9.15;100.00;100669.06;5240673;55;1142822;-78
2024/02/27 19:11:35;;;;;;;83.20;40.07;;;;;;;9.07;100.00;100667.89;5232166;55;1142891;-78
2024/02/27 19:16:41;;;;;;;81.05;38.17;;;;;;;8.98;100.00;100665.42;5198842;55;1142427;-78
2024/02/27 19:21:47;;;;;;;112.40;56.47;;;;;;;8.95;100.00;100671.37;5200162;55;1143046;-78
2024/02/27 19:26:53;;;;;;;117.50;56.97;;;;;;;8.94;100.00;100676.28;5220594;55;1144882;-78
2024/02/27 19:31:59;;;;;;;96.23;47.40;;;;;;;8.89;100.00;100682.33;5201895;55;1145056;-78
2024/02/27 19:37:05;;;;;;;94.97;45.20;;;;;;;8.85;100.00;100684.36;5030314;57;1143095;-78
2024/02/27 19:42:11;;;;;;;74.90;37.40;;;;;;;8.84;100.00;100680.50;5151677;55;1143200;-78
2024/02/27 19:47:17;;;;;;;92.53;44.50;;;;;;;8.85;100.00;100675.13;5180400;55;1142818;-78
2024/02/27 19:52:27;;;;;;;92.33;39.08;;;;;;;8.90;100.00;100679.59;5163516;55;1142978;-78
2024/02/27 19:57:55;;;;;;;88.53;37.37;;;;;;;8.96;100.00;100687.58;5106412;56;1142701;-78
2024/02/27 20:03:01;;;;;;;82.63;40.47;;;;;;;9.00;100.00;100685.95;5222144;55;1142875;-79
2024/02/27 20:08:07;;;;;;;110.47;51.43;;;;;;;9.04;100.00;100698.43;5195255;55;1142956;-84
2024/02/27 20:13:20;;;;;;;148.80;61.67;;;;;;;9.01;100.00;100707.91;5205392;55;1145052;-84
2024/02/27 20:18:20;;;;;;;72.27;33.50;;;;;;;9.00;100.00;100705.73;5239610;55;1144741;-83
2024/02/27 20:23:25;;;;;;;54.37;28.30;;;;;;;9.01;100.00;100710.03;5221004;55;1142705;-84
2024/02/27 20:28:31;;;;;;;52.78;27.20;;;;;;;9.01;100.00;100705.27;5221473;55;1142871;-81
2024/02/27 20:33:39;;;;;;;51.60;26.47;;;;;;;9.00;100.00;100697.83;5240599;55;1142666;-84
2024/02/27 20:38:44;;;;;;;50.70;26.53;;;;;;;8.98;100.00;100690.48;5181979;55;1142871;-81
2024/02/27 20:43:50;;;;;;;54.60;27.33;;;;;;;8.96;100.00;100689.73;5184586;55;1143088;-82
2024/02/27 20:48:59;;;;;;;50.97;24.80;;;;;;;8.94;100.00;100690.31;5220834;55;1142766;-81
2024/02/27 20:54:04;;;;;;;56.47;27.93;;;;;;;8.90;100.00;100681.38;5111823;55;1142700;-83
2024/02/27 20:59:12;;;;;;;59.53;27.73;;;;;;;8.79;100.00;100686.92;5152067;55;1143290;-82
2024/02/27 21:04:18;;;;;;;54.33;28.57;;;;;;;8.76;100.00;100691.08;5163852;56;1142815;-83
2024/02/27 21:09:23;;;;;;;59.13;26.93;;;;;;;8.80;100.00;100697.00;5133133;56;1142921;-80
2024/02/27 21:14:31;;;;;;;53.10;25.77;;;;;;;8.83;100.00;100702.07;5133417;56;1142932;-80
2024/02/27 21:19:36;;;;;;;67.40;30.27;;;;;;;8.89;100.00;100703.43;5152838;56;1142842;-81
2024/02/27 21:24:42;;;;;;;57.20;27.67;;;;;;;8.87;100.00;100697.41;5133100;56;1143047;-80
2024/02/27 21:29:48;;;;;;;66.15;30.52;;;;;;;8.92;100.00;100703.23;5132213;56;1142957;-80
2024/02/27 21:34:53;;;;;;;69.50;30.90;;;;;;;8.94;100.00;100712.73;5149415;55;1143004;-81
2024/02/27 21:39:59;;;;;;;67.27;28.93;;;;;;;8.87;100.00;100714.55;5132834;56;1143257;-80
2024/02/27 21:45:05;;;;;;;57.33;27.50;;;;;;;8.84;100.00;100726.66;5133204;56;1143078;-81
2024/02/27 21:50:11;;;;;;;63.10;28.43;;;;;;;8.77;100.00;100728.84;5179763;55;1143068;-81
2024/02/27 21:55:18;;;;;;;58.78;26.42;;;;;;;8.77;100.00;100734.12;5228566;55;1143001;-80
2024/02/27 22:00:23;;;;;;;56.42;27.70;;;;;;;8.77;100.00;100734.12;5159365;55;1142889;-81
2024/02/27 22:05:29;;;;;;;62.50;28.27;;;;;;;8.77;100.00;100734.12;5136181;56;1142876;-80
2024/02/27 22:10:35;;;;;;;61.23;29.43;;;;;;;8.65;100.00;100728.34;5158021;56;1142914;-81
2024/02/27 22:15:40;;;;;;;55.77;26.33;;;;;;;8.61;100.00;100732.97;5137502;56;1142683;-80
2024/02/27 22:20:46;;;;;;;63.10;29.17;;;;;;;8.58;100.00;100737.59;5137362;56;1142917;-80
2024/02/27 22:25:52;;;;;;;59.87;27.83;;;;;;;8.56;100.00;100744.28;5157427;55;1142884;-80
2024/02/27 22:30:57;;;;;;;62.13;27.90;;;;;;;8.60;100.00;100739.19;5138850;56;1142833;-80
2024/02/27 22:36:03;;;;;;;59.23;27.20;;;;;;;8.64;100.00;100746.42;5142093;55;1142717;-81
2024/02/27 22:41:12;;;;;;;70.50;30.60;;;;;;;8.63;100.00;100744.27;5161903;56;1145815;-80
2024/02/27 22:46:42;;;;;;;63.27;29.30;;;;;;;8.54;100.00;100738.77;5141154;56;1142762;-80